createdAt,value
2022-11-26T00:02:23.267Z,99084.50
2022-11-26T00:12:32.860Z,99090.71
2022-11-26T00:22:44.250Z,99091.17
2022-11-26T00:32:52.348Z,99093.76
2022-11-26T00:43:01.865Z,99097.05
2022-11-26T00:53:13.427Z,99099.77
2022-11-26T01:03:20.625Z,99113.29
2022-11-26T01:13:29.115Z,99120.18
2022-11-26T01:23:36.375Z,99126.27
2022-11-26T01:33:43.343Z,99126.83
2022-11-26T01:43:53.225Z,99127.27
2022-11-26T01:54:00.525Z,99125.73
2022-11-26T02:04:10.316Z,99127.73
2022-11-26T02:14:18.148Z,99134.49
2022-11-26T02:24:29.054Z,99137.76
2022-11-26T02:34:37.782Z,99139.30
2022-11-26T02:44:47.608Z,99135.02
2022-11-26T02:54:54.264Z,99142.77
2022-11-26T03:05:03.783Z,99141.14
2022-11-26T03:15:12.499Z,99144.72
2022-11-26T03:25:20.129Z,99160.41
2022-11-26T03:35:27.250Z,99163.74
2022-11-26T03:45:34.382Z,99163.46
2022-11-26T03:55:41.685Z,99183.48
2022-11-26T04:05:48.665Z,99188.38
2022-11-26T04:15:56.281Z,99196.48
2022-11-26T04:26:03.791Z,99199.89
2022-11-26T04:36:10.244Z,99207.91
2022-11-26T04:46:17.509Z,99222.53
2022-11-26T04:56:25.574Z,99241.45
2022-11-26T05:06:33.033Z,99247.08
2022-11-26T05:16:40.664Z,99249.16
2022-11-26T05:26:51.192Z,99244.40
2022-11-26T05:37:02.263Z,99237.98
2022-11-26T05:47:09.633Z,99246.27
2022-11-26T05:57:16.785Z,99268.04
2022-11-26T06:07:23.904Z,99276.81
2022-11-26T06:17:31.987Z,99280.86
2022-11-26T06:27:39.971Z,99293.13
2022-11-26T06:37:46.965Z,99298.21
2022-11-26T06:47:54.767Z,99307.18
2022-11-26T06:58:01.806Z,99320.44
2022-11-26T07:08:08.082Z,99328.17
2022-11-26T07:18:15.386Z,99339.27
2022-11-26T07:28:22.619Z,99345.68
2022-11-26T07:38:30.771Z,99354.40
2022-11-26T07:48:40.461Z,99360.70
2022-11-26T07:58:46.276Z,99371.77
2022-11-26T08:08:53.735Z,99377.59
2022-11-26T08:19:03.148Z,99383.13
2022-11-26T08:29:10.306Z,99384.81
2022-11-26T08:39:19.319Z,99392.84
2022-11-26T08:49:26.414Z,99396.34
2022-11-26T08:59:33.731Z,99396.46
2022-11-26T09:09:41.000Z,99403.11
2022-11-26T09:19:48.151Z,99416.80
2022-11-26T09:29:55.677Z,99427.02
2022-11-26T09:40:02.907Z,99432.16
2022-11-26T09:50:09.348Z,99432.05
2022-11-26T10:00:24.117Z,99436.77
2022-11-26T10:10:34.470Z,99435.26
2022-11-26T10:20:52.104Z,99439.96
2022-11-26T10:30:57.525Z,99449.80
2022-11-26T10:41:04.744Z,99452.10
2022-11-26T10:51:13.801Z,99443.91
2022-11-26T11:01:21.955Z,99440.94
2022-11-26T11:11:32.172Z,99444.23
2022-11-26T11:21:48.359Z,99441.41
2022-11-26T11:31:56.872Z,99447.72
2022-11-26T11:42:01.693Z,99454.94
2022-11-26T11:52:13.290Z,99459.95
2022-11-26T12:02:23.987Z,99467.17
2022-11-26T12:12:36.248Z,99473.30
2022-11-26T12:22:44.702Z,99476.80
2022-11-26T12:32:54.450Z,99491.84
2022-11-26T12:43:03.552Z,99502.14
2022-11-26T12:53:19.100Z,99504.64
2022-11-26T13:03:32.437Z,99509.08
2022-11-26T13:13:37.968Z,99508.77
2022-11-26T13:23:48.135Z,99509.77
2022-11-26T13:34:29.781Z,99514.67
2022-11-26T13:54:58.332Z,99530.59
2022-11-26T14:05:08.885Z,99535.86
2022-11-26T14:15:47.085Z,99546.68
2022-11-26T14:25:54.814Z,99550.80
2022-11-26T14:36:02.330Z,99563.81
2022-11-26T14:46:08.137Z,99578.42
2022-11-26T14:56:15.624Z,99587.73
2022-11-26T15:06:25.405Z,99602.50
2022-11-26T15:16:36.367Z,99611.81
2022-11-26T15:26:46.321Z,99619.45
2022-11-26T15:36:54.332Z,99628.78
2022-11-26T15:47:02.859Z,99639.70
2022-11-26T15:57:20.309Z,99646.71
2022-11-26T16:07:27.572Z,99655.94
2022-11-26T16:17:35.144Z,99663.34
2022-11-26T16:27:46.412Z,99673.42
2022-11-26T16:37:57.002Z,99680.46
2022-11-26T16:48:05.065Z,99686.70
2022-11-26T16:58:17.310Z,99700.78
2022-11-26T17:08:25.248Z,99718.99
2022-11-26T17:18:33.265Z,99730.23
2022-11-26T17:28:40.293Z,99732.79
2022-11-26T17:38:48.783Z,99743.15
2022-11-26T17:48:59.789Z,99747.79
2022-11-26T17:59:07.492Z,99752.13
2022-11-26T18:09:13.615Z,99762.44
2022-11-26T18:19:23.279Z,99772.20
2022-11-26T18:29:30.313Z,99780.27
2022-11-26T18:39:38.531Z,99782.86
2022-11-26T18:49:47.939Z,99781.52
2022-11-26T18:59:55.533Z,99793.45
2022-11-26T19:10:02.072Z,99799.86
2022-11-26T19:20:09.974Z,99799.44
2022-11-26T19:30:17.978Z,99809.20
2022-11-26T19:40:25.227Z,99819.13
2022-11-26T19:50:33.498Z,99823.50
2022-11-26T20:00:40.261Z,99835.55
2022-11-26T20:10:50.128Z,99843.63
2022-11-26T20:20:58.172Z,99842.02
2022-11-26T20:31:06.967Z,99851.20
2022-11-26T20:41:17.688Z,99855.48
2022-11-26T20:51:25.686Z,99852.27
2022-11-26T21:01:33.646Z,99853.77
2022-11-26T21:11:41.556Z,99861.98
2022-11-26T21:21:47.685Z,99866.91
2022-11-26T21:31:53.867Z,99865.62
2022-11-26T21:42:01.621Z,99874.59
2022-11-26T21:52:07.876Z,99866.95
2022-11-26T22:02:14.309Z,99863.20
2022-11-26T22:12:22.119Z,99872.61
2022-11-26T22:22:29.476Z,99870.15
2022-11-26T22:32:37.989Z,99861.81
2022-11-26T22:42:45.490Z,99863.59
2022-11-26T22:52:52.830Z,99863.59
2022-11-26T23:03:00.328Z,99857.27
2022-11-26T23:13:08.631Z,99856.03
2022-11-26T23:23:16.269Z,99856.33
2022-11-26T23:33:23.810Z,99855.95
2022-11-26T23:43:33.076Z,99862.55
2022-11-26T23:53:42.062Z,99859.41
